NCAR-RAP Real-Time Weather Data

Output produced by METARs form (10 April 2020  06:54 UTC)
found at http://weather.rap.ucar.edu/surface/
 
KAGS 100553Z AUTO 31012KT 10SM CLR 21/02 A2972 RMK AO2 SLP063 T02060022 10261 20206 50005